Time;durP1;ratioP1;P1;durP2;ratioP2;P2;SDS_P1;SDS_P2;PMS_P1;PMS_P2;Temp;Humidity;BMP_temperature;BMP_pressure;BME280_temperature;BME280_humidity;BME280_pressure;Samples;Min_cycle;Max_cycle;Signal;HPM_P1;HPM_P2
2022/01/12 00:01:14;;;;;;;;;;;;;;;5.77;100.00;101071.53;5097145;28;19924;-77
2022/01/12 00:03:42;;;;;;;;;;;;;;;5.90;100.00;101071.25;5095744;28;19931;-77
2022/01/12 00:06:09;;;;;;;;;;;;;;;5.97;100.00;101079.03;5097037;28;20030;-77
2022/01/12 00:08:37;;;;;;;;;;;;;;;5.88;100.00;101070.78;5095674;28;19924;-77
2022/01/12 00:11:05;;;;;;;;;;;;;;;6.31;100.00;101067.47;5096888;28;19977;-77
2022/01/12 00:13:32;;;;;;;;;;;;;;;6.13;100.00;101075.22;5096547;28;19924;-77
2022/01/12 00:16:02;;;;;;;;;;;;;;;6.30;100.00;101074.19;5096723;28;19924;-77
2022/01/12 00:18:29;;;;;;;;;;;;;;;6.43;100.00;101067.47;5096630;28;20518;-77
2022/01/12 00:20:56;;;;;;;;;;;;;;;6.25;100.00;101060.53;5095495;28;19932;-77
2022/01/12 00:23:23;;;;;;;;;;;;;;;6.25;100.00;101057.75;5096622;28;19962;-77
2022/01/12 00:34:02;;;;;;;;;;;;;;;6.54;100.00;101068.63;5075117;28;19924;-77
2022/01/12 00:36:30;;;;;;;;;;;;;;;6.71;100.00;101073.94;5075093;28;19925;-77
2022/01/12 00:38:58;;;;;;;;;;;;;;;6.60;100.00;101068.03;5074984;28;19978;-77
2022/01/12 00:41:26;;;;;;;;;;;;;;;6.34;100.00;101080.66;5041655;28;19929;-77
2022/01/12 00:43:58;;;;;;;;;;;;;;;6.28;100.00;101093.16;5076002;28;19940;-77
2022/01/12 00:46:29;;;;;;;;;;;;;;;6.18;100.00;101104.72;5057778;28;20279;-77
2022/01/12 00:48:57;;;;;;;;;;;;;;;6.30;100.00;101099.16;5076118;28;20409;-77
2022/01/12 00:51:27;;;;;;;;;;;;;;;5.95;100.00;101097.97;5074799;28;19925;-77
2022/01/12 00:53:54;;;;;;;;;;;;;;;6.15;100.00;101105.41;5087850;28;19951;-77
2022/01/12 00:56:22;;;;;;;;;;;;;;;6.09;100.00;101090.13;5077472;28;19970;-77
2022/01/12 00:58:49;;;;;;;;;;;;;;;6.15;100.00;101085.97;5094814;28;19928;-77
2022/01/12 01:01:18;;;;;;;;;;;;;;;5.85;100.00;101087.28;5094994;28;19924;-77
2022/01/12 01:03:45;;;;;;;;;;;;;;;5.94;100.00;101094.38;5094829;28;19924;-77
2022/01/12 01:06:13;;;;;;;;;;;;;;;6.08;100.00;101094.88;5077911;28;19924;-77
2022/01/12 01:08:40;;;;;;;;;;;;;;;6.38;100.00;101087.13;5095894;28;20363;-77
2022/01/12 01:11:07;;;;;;;;;;;;;;;6.51;100.00;101091.53;5094517;28;19931;-77
2022/01/12 01:13:44;;;;;;;;;;;;;;;6.61;100.00;101097.44;5077656;28;20359;-77
2022/01/12 01:16:24;;;;;;;;;;;;;;;6.83;100.00;101099.69;5061512;28;19924;-77
2022/01/12 01:27:20;;;;;;;;;;;;;;;6.54;100.00;101118.63;5053201;28;20018;-78
2022/01/12 01:29:49;;;;;;;;;;;;;;;6.65;100.00;101103.09;5053080;28;19925;-77
2022/01/12 01:32:18;;;;;;;;;;;;;;;6.45;100.00;101121.47;5020411;28;19925;-77
2022/01/12 01:34:47;;;;;;;;;;;;;;;6.54;100.00;101119.41;5052949;28;19925;-77
2022/01/12 01:37:18;;;;;;;;;;;;;;;6.50;100.00;101120.44;5036245;28;19925;-77
2022/01/12 01:39:46;;;;;;;;;;;;;;;6.75;100.00;101114.56;5036015;28;20043;-77
2022/01/12 01:42:20;;;;;;;;;;;;;;;6.82;100.00;101119.50;5036263;28;19925;-78
2022/01/12 01:55:40;;;;;;;;;;;;;;;7.00;100.00;101098.63;5035777;28;20027;-77
2022/01/12 01:58:07;;;;;;;;;;;;;;;6.60;100.00;101106.09;5067810;28;20338;-77
2022/01/12 02:00:37;;;;;;;;;;;;;;;7.07;100.00;101109.97;5073602;28;20315;-77
2022/01/12 02:03:09;;;;;;;;;;;;;;;7.14;100.00;101115.75;5073604;28;20286;-77
2022/01/12 02:05:41;;;;;;;;;;;;;;;7.36;100.00;101106.88;5056853;28;19971;-77
2022/01/12 02:08:09;;;;;;;;;;;;;;;7.16;100.00;101105.09;5073162;28;20010;-77
2022/01/12 02:10:46;;;;;;;;;;;;;;;7.38;100.00;101103.75;5057058;28;19925;-77
2022/01/12 02:13:13;;;;;;;;;;;;;;;7.42;100.00;101104.66;5056766;28;19974;-77
2022/01/12 02:15:44;;;;;;;;;;;;;;;7.06;100.00;101109.16;5056789;28;19925;-77
2022/01/12 02:18:33;;;;;;;;;;;;;;;6.80;100.00;101113.50;5056776;28;20032;-77
2022/01/12 02:40:54;;;;;;;;;;;;;;;7.02;100.00;101113.00;5106521;28;19924;-78
2022/01/12 02:53:38;;;;;;;;;;;;;;;7.02;100.00;101113.81;5090209;28;19928;-78
2022/01/12 02:54:22;;;;;;;;;;;;;;;7.10;100.00;101120.41;5090017;28;19925;-78
2022/01/12 02:56:50;;;;;;;;;;;;;;;7.20;100.00;101104.03;5073316;28;19924;-78
2022/01/12 02:59:17;;;;;;;;;;;;;;;7.22;100.00;101103.69;5090038;28;19924;-78
2022/01/12 03:02:09;;;;;;;;;;;;;;;7.04;100.00;101100.34;5090060;28;19973;-78
2022/01/12 03:04:36;;;;;;;;;;;;;;;6.91;100.00;101109.06;5089724;28;20017;-78
2022/01/12 03:07:09;;;;;;;;;;;;;;;6.99;100.00;101108.13;5089735;28;20409;-78
2022/01/12 03:09:36;;;;;;;;;;;;;;;6.97;100.00;101121.56;5072952;28;19935;-78
2022/01/12 03:12:04;;;;;;;;;;;;;;;6.88;100.00;101113.38;5089841;28;20023;-78
2022/01/12 03:14:31;;;;;;;;;;;;;;;6.92;100.00;101119.03;5089730;28;20280;-78
2022/01/12 03:16:58;;;;;;;;;;;;;;;7.12;100.00;101135.56;5072878;28;20433;-78
2022/01/12 03:19:28;;;;;;;;;;;;;;;7.24;100.00;101134.69;5089768;28;20279;-78
2022/01/12 03:21:55;;;;;;;;;;;;;;;7.19;100.00;101129.41;5089380;28;20240;-78
2022/01/12 03:24:23;;;;;;;;;;;;;;;7.25;100.00;101136.34;5089487;28;19924;-78
2022/01/12 03:26:51;;;;;;;;;;;;;;;7.49;100.00;101133.47;5072634;28;20364;-78
2022/01/12 03:29:18;;;;;;;;;;;;;;;7.71;100.00;101138.47;5089550;28;20367;-78
2022/01/12 03:31:45;;;;;;;;;;;;;;;7.69;100.00;101137.22;5089467;28;19930;-78
2022/01/12 03:34:29;;;;;;;;;;;;;;;7.27;100.00;101125.66;5089435;28;20360;-78
2022/01/12 03:40:05;;;;;;;;;;;;;;;7.67;100.00;101118.09;5071175;28;19986;-78
2022/01/12 03:42:33;;;;;;;;;;;;;;;7.41;100.00;101130.84;5088071;28;19925;-78
2022/01/12 03:45:00;;;;;;;;;;;;;;;7.27;100.00;101137.59;5070935;28;19928;-78
2022/01/12 03:47:27;;;;;;;;;;;;;;;6.86;100.00;101137.13;5053537;28;20371;-78
2022/01/12 03:49:55;;;;;;;;;;;;;;;7.10;100.00;101142.63;5057300;28;20406;-78
2022/01/12 03:52:22;;;;;;;;;;;;;;;7.35;100.00;101144.19;5041100;28;19930;-78
2022/01/12 03:54:50;;;;;;;;;;;;;;;7.39;100.00;101139.56;5074305;28;20311;-78
2022/01/12 03:57:18;;;;;;;;;;;;;;;7.64;100.00;101152.19;5074226;28;19964;-78
2022/01/12 03:59:45;;;;;;;;;;;;;;;7.76;100.00;101160.50;5040845;28;20023;-78
2022/01/12 04:02:12;;;;;;;;;;;;;;;7.92;100.00;101157.75;5074153;28;19978;-78
2022/01/12 04:05:05;;;;;;;;;;;;;;;7.98;100.00;101145.19;5073900;28;19924;-78
2022/01/12 04:10:14;;;;;;;;;;;;;;;7.61;100.00;101133.44;5058976;28;20007;-78
2022/01/12 04:12:41;;;;;;;;;;;;;;;7.78;100.00;101140.66;5058599;28;19924;-78
2022/01/12 04:15:09;;;;;;;;;;;;;;;7.87;100.00;101139.34;5075048;28;19963;-78
2022/01/12 04:17:36;;;;;;;;;;;;;;;8.13;100.00;101142.44;5075145;28;20283;-78
2022/01/12 04:20:03;;;;;;;;;;;;;;;8.15;100.00;101144.88;5074659;28;19933;-79
2022/01/12 04:25:18;;;;;;;;;;;;;;;7.35;100.00;101152.53;5074742;28;19952;-78
2022/01/12 04:27:45;;;;;;;;;;;;;;;7.25;100.00;101150.25;5074775;28;19924;-79
2022/01/12 04:30:12;;;;;;;;;;;;;;;7.38;100.00;101154.59;5074817;28;19929;-78
2022/01/12 04:32:42;;;;;;;;;;;;;;;6.97;100.00;101143.81;5058331;28;19924;-78
2022/01/12 04:35:10;;;;;;;;;;;;;;;6.75;100.00;101152.63;5074335;28;19931;-78
2022/01/12 04:37:37;;;;;;;;;;;;;;;7.10;100.00;101160.09;5074181;28;19947;-79
2022/01/12 04:40:05;;;;;;;;;;;;;;;7.13;100.00;101164.19;5041370;28;20326;-78
2022/01/12 04:42:34;;;;;;;;;;;;;;;7.06;100.00;101178.66;5074565;28;19925;-78
2022/01/12 04:45:16;;;;;;;;;;;;;;;7.12;100.00;101170.88;5057707;28;19932;-78
2022/01/12 04:48:00;;;;;;;;;;;;;;;7.36;100.00;101159.72;5074234;28;19946;-78
2022/01/12 04:50:30;;;;;;;;;;;;;;;6.73;100.00;101171.63;5074446;28;19924;-78
2022/01/12 04:52:57;;;;;;;;;;;;;;;7.13;100.00;101180.84;5074299;28;19994;-78
2022/01/12 04:55:24;;;;;;;;;;;;;;;7.31;100.00;101173.88;5074259;28;20360;-78
2022/01/12 04:57:51;;;;;;;;;;;;;;;7.06;100.00;101173.09;5057732;28;19951;-79
2022/01/12 05:00:21;;;;;;;;;;;;;;;6.87;100.00;101158.19;5073141;28;20264;-78
2022/01/12 05:08:48;;;;;;;;;;;;;;;7.29;100.00;101167.84;5073939;28;20383;-78
2022/01/12 05:14:01;;;;;;;;;;;;;;;7.38;100.00;101160.16;5072392;28;19925;-78
2022/01/12 05:16:28;;;;;;;;;;;;;;;7.33;100.00;101163.19;5073668;28;19950;-78
2022/01/12 05:18:56;;;;;;;;;;;;;;;7.32;100.00;101162.41;5056703;28;19942;-78
2022/01/12 05:21:24;;;;;;;;;;;;;;;7.34;100.00;101159.25;5073654;28;19932;-79
2022/01/12 05:23:52;;;;;;;;;;;;;;;7.34;100.00;101162.03;5073549;28;20078;-78
2022/01/12 05:26:19;;;;;;;;;;;;;;;7.19;100.00;101168.34;5073714;28;20371;-78
2022/01/12 05:28:46;;;;;;;;;;;;;;;7.21;100.00;101168.78;5073517;28;19928;-78
2022/01/12 05:31:14;;;;;;;;;;;;;;;7.34;100.00;101165.66;5073264;28;19932;-78
2022/01/12 05:33:47;;;;;;;;;;;;;;;7.28;100.00;101166.22;5073306;28;19960;-78
2022/01/12 05:36:16;;;;;;;;;;;;;;;7.22;100.00;101173.19;5073274;28;19928;-78
2022/01/12 05:38:43;;;;;;;;;;;;;;;7.30;100.00;101177.78;5073188;28;20524;-79
2022/01/12 05:41:11;;;;;;;;;;;;;;;6.94;100.00;101166.72;5040599;28;19965;-78
2022/01/12 05:43:41;;;;;;;;;;;;;;;7.18;100.00;101173.06;5073244;28;19925;-78
2022/01/12 05:46:13;;;;;;;;;;;;;;;7.28;100.00;101166.22;5089737;28;19930;-78
2022/01/12 05:51:30;;;;;;;;;;;;;;;6.98;100.00;101164.91;5090014;28;19924;-78
2022/01/12 05:53:57;;;;;;;;;;;;;;;6.57;100.00;101170.69;5073083;28;19929;-78
2022/01/12 05:56:25;;;;;;;;;;;;;;;6.77;100.00;101167.78;5072923;28;19931;-78
2022/01/12 05:58:53;;;;;;;;;;;;;;;6.32;100.00;101150.41;5089508;28;19928;-78
2022/01/12 06:01:20;;;;;;;;;;;;;;;6.34;100.00;101163.94;5072965;28;19931;-78
2022/01/12 06:03:50;;;;;;;;;;;;;;;6.71;100.00;101168.38;5072899;28;19932;-78
2022/01/12 06:06:17;;;;;;;;;;;;;;;7.00;100.00;101165.34;5072793;28;19924;-78
2022/01/12 06:08:45;;;;;;;;;;;;;;;7.11;100.00;101170.09;5079565;28;19925;-78
2022/01/12 06:11:23;;;;;;;;;;;;;;;7.21;100.00;101171.56;5085885;28;20327;-79
2022/01/12 06:13:54;;;;;;;;;;;;;;;6.97;100.00;101171.59;5086337;28;19929;-78
2022/01/12 06:16:22;;;;;;;;;;;;;;;6.87;100.00;101177.63;5068967;28;19987;-78
2022/01/12 06:18:49;;;;;;;;;;;;;;;6.85;100.00;101179.94;5086026;28;19925;-78
2022/01/12 06:21:16;;;;;;;;;;;;;;;7.15;100.00;101184.09;5069304;28;19928;-78
2022/01/12 06:23:51;;;;;;;;;;;;;;;6.68;100.00;101178.22;5036101;28;19925;-78
2022/01/12 06:26:24;;;;;;;;;;;;;;;6.62;100.00;101184.38;5052477;28;19931;-77
2022/01/12 06:31:41;;;;;;;;;;;;;;;6.63;100.00;101200.69;5052559;28;19929;-78
2022/01/12 06:34:08;;;;;;;;;;;;;;;7.06;100.00;101217.56;5053595;28;19924;-78
2022/01/12 06:36:36;;;;;;;;;;;;;;;7.43;100.00;101209.19;5051790;28;19925;-79
2022/01/12 06:39:06;;;;;;;;;;;;;;;7.61;100.00;101218.88;5085750;28;20016;-79
2022/01/12 06:41:33;;;;;;;;;;;;;;;6.80;100.00;101211.56;5069173;28;20015;-78
2022/01/12 06:44:00;;;;;;;;;;;;;;;7.08;100.00;101218.06;5068898;28;19924;-78
2022/01/12 06:46:30;;;;;;;;;;;;;;;7.89;100.00;101231.63;5085688;28;19975;-78
2022/01/12 06:48:58;;;;;;;;;;;;;;;7.53;100.00;101223.41;5085929;28;19970;-78
2022/01/12 06:51:25;;;;;;;;;;;;;;;7.36;100.00;101232.03;5085850;28;19931;-78
2022/01/12 06:53:55;;;;;;;;;;;;;;;7.93;100.00;101227.00;5045335;28;20330;-78
2022/01/12 06:56:24;;;;;;;;;;;;;;;7.76;100.00;101232.03;5072177;28;19924;-78
2022/01/12 06:58:55;;;;;;;;;;;;;;;7.82;100.00;101247.31;5072006;28;20009;-78
2022/01/12 07:01:22;;;;;;;;;;;;;;;7.64;100.00;101238.47;5039148;28;20050;-78
2022/01/12 07:03:49;;;;;;;;;;;;;;;7.83;100.00;101255.31;5072257;28;19931;-78
2022/01/12 07:06:18;;;;;;;;;;;;;;;7.20;100.00;101253.38;5072160;28;20341;-78
2022/01/12 07:08:45;;;;;;;;;;;;;;;7.58;100.00;101264.91;5055626;28;19994;-78
2022/01/12 07:11:27;;;;;;;;;;;;;;;7.10;100.00;101262.19;5072306;28;20286;-79
2022/01/12 07:14:00;;;;;;;;;;;;;;;6.88;100.00;101251.50;5054949;28;20345;-77
2022/01/12 07:16:27;;;;;;;;;;;;;;;7.32;100.00;101268.06;5071537;28;19982;-77
2022/01/12 07:18:59;;;;;;;;;;;;;;;6.91;100.00;101259.16;5055911;28;19967;-78
2022/01/12 07:21:29;;;;;;;;;;;;;;;7.19;100.00;101262.88;5035038;28;19971;-77
2022/01/12 07:23:56;;;;;;;;;;;;;;;6.73;100.00;101266.91;5068428;28;20322;-77
2022/01/12 07:26:24;;;;;;;;;;;;;;;7.46;100.00;101278.03;5092478;28;20022;-77
2022/01/12 07:28:51;;;;;;;;;;;;;;;7.29;100.00;101270.75;5077008;28;19931;-78
2022/01/12 07:31:19;;;;;;;;;;;;;;;7.48;100.00;101273.75;5076690;28;19924;-78
2022/01/12 07:33:46;;;;;;;;;;;;;;;7.48;100.00;101265.41;5059149;28;19929;-78
2022/01/12 07:36:14;;;;;;;;;;;;;;;7.48;100.00;101259.00;5042403;28;20019;-78
2022/01/12 07:38:41;;;;;;;;;;;;;;;7.64;100.00;101260.72;5074332;28;20323;-78
2022/01/12 07:41:08;;;;;;;;;;;;;;;7.81;100.00;101271.59;5058305;28;19928;-78
2022/01/12 07:43:35;;;;;;;;;;;;;;;7.51;100.00;101261.91;5076446;28;19928;-78
2022/01/12 07:46:02;;;;;;;;;;;;;;;7.04;100.00;101271.91;5075237;28;19924;-77
2022/01/12 07:48:29;;;;;;;;;;;;;;;7.12;100.00;101284.88;5074252;28;19925;-78
2022/01/12 07:50:56;;;;;;;;;;;;;;;7.33;100.00;101285.56;5062643;28;20411;-78
2022/01/12 07:53:23;;;;;;;;;;;;;;;7.72;100.00;101298.75;5070548;28;19974;-78
2022/01/12 07:55:51;;;;;;;;;;;;;;;7.21;100.00;101289.16;5075268;28;20433;-78
2022/01/12 07:58:18;;;;;;;;;;;;;;;7.19;100.00;101279.56;5074864;28;19925;-78
2022/01/12 08:00:45;;;;;;;;;;;;;;;7.24;100.00;101282.09;5076324;28;20070;-78
2022/01/12 08:03:12;;;;;;;;;;;;;;;7.17;100.00;101282.69;5058719;28;20332;-78
2022/01/12 08:05:39;;;;;;;;;;;;;;;6.98;100.00;101301.09;5073880;28;19931;-77
2022/01/12 08:08:06;;;;;;;;;;;;;;;6.97;100.00;101307.78;5073769;28;19970;-78
2022/01/12 08:10:34;;;;;;;;;;;;;;;6.78;100.00;101313.94;5076053;28;20276;-77
2022/01/12 08:13:04;;;;;;;;;;;;;;;6.90;100.00;101316.72;5074920;28;20256;-78
2022/01/12 08:15:31;;;;;;;;;;;;;;;7.19;100.00;101343.50;5058320;28;19931;-78
2022/01/12 08:17:58;;;;;;;;;;;;;;;7.41;100.00;101343.03;5074673;28;20016;-77
2022/01/12 08:20:28;;;;;;;;;;;;;;;7.47;100.00;101341.66;5058191;28;19924;-78
2022/01/12 08:22:55;;;;;;;;;;;;;;;7.25;100.00;101339.34;5074665;28;19924;-78
2022/01/12 08:25:23;;;;;;;;;;;;;;;7.19;100.00;101343.50;5075708;28;19924;-77
2022/01/12 08:27:51;;;;;;;;;;;;;;;7.01;100.00;101347.66;5091476;28;19925;-77
2022/01/12 08:30:20;;;;;;;;;;;;;;;7.31;100.00;101346.31;5074417;28;19925;-78
2022/01/12 08:32:50;;;;;;;;;;;;;;;7.18;100.00;101341.88;5058315;28;19925;-77
2022/01/12 08:35:19;;;;;;;;;;;;;;;7.19;100.00;101347.09;5108128;28;20333;-77
2022/01/12 08:37:46;;;;;;;;;;;;;;;7.12;100.00;101341.28;5073759;28;19967;-77
2022/01/12 08:40:14;;;;;;;;;;;;;;;7.55;100.00;101337.13;5074331;28;20378;-78
2022/01/12 08:42:42;;;;;;;;;;;;;;;7.58;100.00;101342.00;5074400;28;20328;-77
2022/01/12 08:45:09;;;;;;;;;;;;;;;7.60;100.00;101345.25;5073151;28;19924;-77
2022/01/12 08:47:37;;;;;;;;;;;;;;;7.59;100.00;101354.75;5064734;28;19990;-77
2022/01/12 08:50:05;;;;;;;;;;;;;;;7.57;100.00;101355.13;5055796;28;19924;-77
2022/01/12 08:52:33;;;;;;;;;;;;;;;7.69;100.00;101354.28;5071454;28;19928;-77
2022/01/12 08:55:00;;;;;;;;;;;;;;;7.82;100.00;101348.34;5073999;28;19974;-77
2022/01/12 08:57:31;;;;;;;;;;;;;;;7.84;100.00;101373.06;5090650;28;20386;-77
2022/01/12 08:59:58;;;;;;;;;;;;;;;7.89;100.00;101365.25;5075331;28;20026;-77
2022/01/12 09:02:26;;;;;;;;;;;;;;;7.87;100.00;101370.38;5057559;28;19924;-77
2022/01/12 09:04:53;;;;;;;;;;;;;;;7.95;100.00;101380.56;5057453;28;19924;-77
2022/01/12 09:07:20;;;;;;;;;;;;;;;7.78;100.00;101368.88;5090710;28;19977;-77
2022/01/12 09:09:47;;;;;;;;;;;;;;;7.89;100.00;101359.69;5074916;28;20025;-77
2022/01/12 09:12:14;;;;;;;;;;;;;;;7.88;100.00;101363.66;5075162;28;19924;-77
2022/01/12 09:14:41;;;;;;;;;;;;;;;8.00;100.00;101349.69;5075123;28;19930;-77
2022/01/12 09:17:16;;;;;;;;;;;;;;;8.12;100.00;101346.09;5070620;28;19986;-75
2022/01/12 09:19:44;;;;;;;;;;;;;;;7.94;100.00;101356.69;5059128;28;19932;-77
2022/01/12 09:22:12;;;;;;;;;;;;;;;7.96;100.00;101359.94;5094684;27;20690;-77
2022/01/12 09:24:42;;;;;;;;;;;;;;;8.03;100.00;101349.00;5076514;28;19925;-80
2022/01/12 09:27:09;;;;;;;;;;;;;;;8.05;100.00;101368.97;5075018;28;20047;-78
2022/01/12 09:29:36;;;;;;;;;;;;;;;8.03;100.00;101360.13;5073270;28;19924;-78
2022/01/12 09:32:04;;;;;;;;;;;;;;;8.05;100.00;101368.13;5072479;28;19929;-78
2022/01/12 09:34:31;;;;;;;;;;;;;;;7.96;100.00;101362.72;5052840;28;20015;-79
2022/01/12 09:36:58;;;;;;;;;;;;;;;8.18;100.00;101372.53;5091750;28;19932;-78
2022/01/12 09:39:25;;;;;;;;;;;;;;;8.26;100.00;101374.38;5067854;28;19925;-79
2022/01/12 09:41:52;;;;;;;;;;;;;;;8.26;100.00;101368.81;5075096;28;19932;-78
2022/01/12 09:44:19;;;;;;;;;;;;;;;8.20;100.00;101361.81;5056302;28;19997;-78
2022/01/12 09:46:47;;;;;;;;;;;;;;;8.36;100.00;101352.41;5079420;28;20462;-79
2022/01/12 09:49:14;;;;;;;;;;;;;;;8.30;100.00;101370.53;5069523;28;19924;-79
2022/01/12 09:51:41;;;;;;;;;;;;;;;8.35;100.00;101372.25;5050766;28;19925;-80
2022/01/12 09:54:10;;;;;;;;;;;;;;;8.25;100.00;101378.34;5072028;28;19993;-80
2022/01/12 09:56:37;;;;;;;;;;;;;;;8.23;100.00;101359.19;5060138;28;19924;-80
2022/01/12 09:59:08;;;;;;;;;;;;;;;8.33;100.00;101375.41;5071025;28;20028;-80
2022/01/12 10:01:39;;;;;;;;;;;;;;;8.20;100.00;101379.38;5084715;28;19931;-80
2022/01/12 10:04:09;;;;;;;;;;;;;;;8.41;100.00;101380.03;5074274;28;19935;-79
2022/01/12 10:06:41;;;;;;;;;;;;;;;8.32;100.00;101373.78;5081798;28;20070;-79
2022/01/12 10:09:08;;;;;;;;;;;;;;;8.29;100.00;101363.34;5065040;28;19925;-80
2022/01/12 10:11:38;;;;;;;;;;;;;;;8.46;100.00;101379.78;5069562;28;20279;-79
2022/01/12 10:14:07;;;;;;;;;;;;;;;8.44;100.00;101372.91;5078467;28;20551;-81
2022/01/12 10:16:34;;;;;;;;;;;;;;;8.19;100.00;101374.97;5082042;28;19924;-80
2022/01/12 10:19:01;;;;;;;;;;;;;;;8.19;100.00;101397.25;5080751;28;20015;-79
2022/01/12 10:21:32;;;;;;;;;;;;;;;8.19;100.00;101405.59;5075738;28;20016;-79
2022/01/12 10:24:03;;;;;;;;;;;;;;;8.28;100.00;101399.91;5085077;28;19928;-79
2022/01/12 10:26:37;;;;;;;;;;;;;;;8.42;100.00;101387.19;5075074;28;19924;-79
2022/01/12 10:29:07;;;;;;;;;;;;;;;8.48;100.00;101391.34;5060825;28;19924;-78
2022/01/12 10:31:44;;;;;;;;;;;;;;;8.38;100.00;101388.25;5084388;28;19924;-78
2022/01/12 10:34:13;;;;;;;;;;;;;;;8.51;100.00;101396.22;5059056;28;20045;-78
2022/01/12 10:36:41;;;;;;;;;;;;;;;8.48;100.00;101401.72;5066514;28;19924;-78
2022/01/12 10:39:09;;;;;;;;;;;;;;;8.34;100.00;101392.94;5076798;28;20017;-78
2022/01/12 10:41:53;;;;;;;;;;;;;;;8.44;100.00;101401.59;5085092;28;19924;-79
2022/01/12 10:44:23;;;;;;;;;;;;;;;8.56;100.00;101401.56;5059242;28;19924;-78
2022/01/12 10:47:01;;;;;;;;;;;;;;;8.96;100.00;101415.44;5079139;28;19931;-78
2022/01/12 10:49:30;;;;;;;;;;;;;;;8.68;100.00;101415.44;5070480;28;19932;-79
2022/01/12 10:51:57;;;;;;;;;;;;;;;9.11;100.00;101398.75;5083741;28;19931;-78
2022/01/12 10:54:25;;;;;;;;;;;;;;;9.15;100.00;101402.41;5057380;28;19924;-78
2022/01/12 10:56:52;;;;;;;;;;;;;;;9.27;100.00;101404.31;5080605;28;20003;-78
2022/01/12 10:59:20;;;;;;;;;;;;;;;9.50;100.00;101410.06;5084895;28;19928;-78
2022/01/12 11:01:47;;;;;;;;;;;;;;;9.62;100.00;101405.22;5077249;28;20011;-78
2022/01/12 11:04:15;;;;;;;;;;;;;;;9.79;100.00;101395.66;5072024;28;19928;-77
2022/01/12 11:06:42;;;;;;;;;;;;;;;9.51;100.00;101389.38;5063174;28;19924;-80
2022/01/12 11:09:10;;;;;;;;;;;;;;;9.49;100.00;101383.34;5081770;28;19928;-79
2022/01/12 11:11:37;;;;;;;;;;;;;;;9.65;100.00;101386.97;5089546;28;19924;-79
2022/01/12 11:14:05;;;;;;;;;;;;;;;9.74;100.00;101384.78;5075554;28;19924;-78
2022/01/12 11:16:32;;;;;;;;;;;;;;;9.28;100.00;101388.41;5087477;28;19986;-79
2022/01/12 11:19:01;;;;;;;;;;;;;;;9.40;100.00;101385.50;5082173;28;20023;-79
2022/01/12 11:21:41;;;;;;;;;;;;;;;9.58;100.00;101382.00;5078147;28;19928;-79
2022/01/12 11:24:11;;;;;;;;;;;;;;;9.94;100.00;101375.25;5089683;28;20363;-78
2022/01/12 11:26:46;;;;;;;;;;;;;;;9.79;100.00;101371.34;5074837;28;19946;-81
2022/01/12 11:29:14;;;;;;;;;;;;;;;9.63;100.00;101372.53;5056019;28;19924;-79
2022/01/12 11:31:41;;;;;;;;;;;;;;;9.87;100.00;101378.72;5075740;28;19925;-78
2022/01/12 11:34:16;;;;;;;;;;;;;;;9.78;100.00;101371.72;5076100;28;19948;-79
2022/01/12 11:36:44;;;;;;;;;;;;;;;10.01;100.00;101378.25;5073607;28;20034;-78
2022/01/12 11:39:14;;;;;;;;;;;;;;;9.69;100.00;101371.09;5076186;28;20379;-78
2022/01/12 11:41:43;;;;;;;;;;;;;;;9.82;100.00;101378.16;5071601;28;19974;-81
2022/01/12 11:44:16;;;;;;;;;;;;;;;9.87;100.00;101377.91;5057242;28;20263;-81
2022/01/12 11:46:49;;;;;;;;;;;;;;;9.79;100.00;101367.72;5074941;28;19963;-77
2022/01/12 11:49:28;;;;;;;;;;;;;;;9.82;100.00;101347.47;5055479;28;19971;-77
2022/01/12 11:51:56;;;;;;;;;;;;;;;9.16;100.00;101342.66;5098835;27;19968;-76
2022/01/12 11:54:29;;;;;;;;;;;;;;;9.11;100.00;101362.47;5073615;28;19924;-77
2022/01/12 11:56:58;;;;;;;;;;;;;;;9.25;100.00;101361.22;5088038;28;19978;-77
2022/01/12 11:59:26;;;;;;;;;;;;;;;9.12;100.00;101358.50;5080221;28;20386;-76
2022/01/12 12:02:05;;;;;;;;;;;;;;;8.96;100.00;101363.28;5079950;28;19924;-76
2022/01/12 12:04:33;;;;;;;;;;;;;;;8.78;100.00;101375.91;5081352;28;20498;-76
2022/01/12 12:07:02;;;;;;;;;;;;;;;9.00;100.00;101374.50;5075137;28;19924;-77
2022/01/12 12:09:36;;;;;;;;;;;;;;;9.03;100.00;101373.78;5082276;28;19924;-76
2022/01/12 12:12:14;;;;;;;;;;;;;;;9.10;100.00;101371.22;5084488;28;19960;-77
2022/01/12 12:14:42;;;;;;;;;;;;;;;9.01;100.00;101367.78;5075194;28;20061;-76
2022/01/12 12:17:09;;;;;;;;;;;;;;;8.82;100.00;101374.03;5084450;28;19954;-77
2022/01/12 12:19:37;;;;;;;;;;;;;;;8.77;100.00;101388.22;5079443;28;20011;-76
2022/01/12 12:22:12;;;;;;;;;;;;;;;8.92;100.00;101378.28;5094071;28;20014;-76
2022/01/12 12:24:39;;;;;;;;;;;;;;;8.92;100.00;101373.50;5094553;28;20065;-76
2022/01/12 12:27:08;;;;;;;;;;;;;;;8.75;100.00;101376.59;5095033;28;20006;-76
2022/01/12 12:29:37;;;;;;;;;;;;;;;9.02;100.00;101374.97;5096177;28;20030;-76
2022/01/12 12:32:07;;;;;;;;;;;;;;;9.26;100.00;101391.53;5078007;28;20360;-76
2022/01/12 12:34:35;;;;;;;;;;;;;;;9.28;100.00;101383.63;5074989;28;19924;-77
2022/01/12 12:37:04;;;;;;;;;;;;;;;9.33;100.00;101382.56;5057000;28;19925;-78
2022/01/12 12:39:32;;;;;;;;;;;;;;;9.24;100.00;101387.50;5074224;28;20398;-77
2022/01/12 12:42:01;;;;;;;;;;;;;;;9.27;100.00;101375.63;5075675;28;20419;-77
2022/01/12 12:44:30;;;;;;;;;;;;;;;9.29;100.00;101385.25;5091306;28;19924;-77
2022/01/12 12:47:09;;;;;;;;;;;;;;;9.16;100.00;101395.66;5075350;28;19970;-77
2022/01/12 12:49:45;;;;;;;;;;;;;;;9.08;100.00;101385.50;5075431;28;20014;-77
2022/01/12 12:52:12;;;;;;;;;;;;;;;9.10;100.00;101376.78;5091195;28;19975;-77
2022/01/12 12:54:42;;;;;;;;;;;;;;;9.11;100.00;101379.22;5040688;28;19935;-76
2022/01/12 12:57:11;;;;;;;;;;;;;;;9.16;100.00;101381.72;5073709;28;19978;-76
2022/01/12 12:59:38;;;;;;;;;;;;;;;8.37;100.00;101379.13;5072951;28;19925;-76
2022/01/12 13:02:12;;;;;;;;;;;;;;;8.63;100.00;101384.25;5073004;28;19931;-76
2022/01/12 13:04:40;;;;;;;;;;;;;;;8.78;100.00;101387.03;5073248;28;19951;-76
2022/01/12 13:07:14;;;;;;;;;;;;;;;8.82;100.00;101387.97;5073044;28;19924;-76
2022/01/12 13:09:41;;;;;;;;;;;;;;;8.29;100.00;101380.06;5073014;28;20390;-75
2022/01/12 13:12:08;;;;;;;;;;;;;;;8.46;100.00;101373.38;5072154;28;19928;-76
2022/01/12 13:14:46;;;;;;;;;;;;;;;8.48;100.00;101382.22;5056677;28;19929;-76
2022/01/12 13:17:14;;;;;;;;;;;;;;;8.64;100.00;101383.88;5073911;28;19925;-76
2022/01/12 13:22:23;;;;;;;;;;;;;;;8.81;100.00;101383.56;5072191;28;20002;-76
2022/01/12 13:24:50;;;;;;;;;;;;;;;9.02;100.00;101375.78;5072859;28;20015;-76
2022/01/12 13:27:17;;;;;;;;;;;;;;;8.65;100.00;101360.41;5074288;28;20337;-76
2022/01/12 13:29:47;;;;;;;;;;;;;;;8.81;100.00;101354.88;5073915;28;19964;-76
2022/01/12 13:32:15;;;;;;;;;;;;;;;8.77;100.00;101351.16;5072701;28;20013;-76
2022/01/12 13:34:53;;;;;;;;;;;;;;;8.99;100.00;101353.38;5072738;28;19932;-76
2022/01/12 13:37:21;;;;;;;;;;;;;;;9.11;100.00;101351.31;5072244;28;20383;-76
2022/01/12 13:40:01;;;;;;;;;;;;;;;8.74;100.00;101347.13;5072484;28;19925;-76
2022/01/12 13:42:30;;;;;;;;;;;;;;;8.88;100.00;101338.31;5072681;28;19976;-76
2022/01/12 13:45:04;;;;;;;;;;;;;;;8.99;100.00;101337.47;5073506;28;19925;-76
2022/01/12 13:47:35;;;;;;;;;;;;;;;9.16;100.00;101348.25;5072413;28;19925;-76
2022/01/12 13:50:07;;;;;;;;;;;;;;;9.35;100.00;101349.50;5055920;28;20155;-76
2022/01/12 13:52:34;;;;;;;;;;;;;;;9.60;100.00;101337.78;5072496;28;19925;-76
2022/01/12 13:55:09;;;;;;;;;;;;;;;9.34;100.00;101331.16;5073527;28;20019;-77
2022/01/12 13:57:38;;;;;;;;;;;;;;;9.25;100.00;101336.94;5072987;28;20360;-76
2022/01/12 14:00:06;;;;;;;;;;;;;;;9.36;100.00;101328.81;5073388;28;20039;-76
2022/01/12 14:02:41;;;;;;;;;;;;;;;9.49;100.00;101338.69;5069857;28;19924;-76
2022/01/12 14:05:12;;;;;;;;;;;;;;;9.10;100.00;101348.91;5073648;28;20293;-76
2022/01/12 14:07:41;;;;;;;;;;;;;;;9.03;100.00;101349.50;5072367;28;19931;-76